Airfield :
LOGIN :

Register | Disclaimer

   EN    FR    IT 

 










Legend :    VFR   Marginal VFR   IFR   Intensive IFR   Very Intensive IFR
Visi :
Ceiling :
>= 8 km
>= 3000ft
5 to 8 km
1000 to 3000 ft
1500m to 5 km
500 to 1000 ft
800 to 1500m
200 to 500 ft
< 800m
< 200 ft
Symbols :   Thunderstorms  Fog  Heavy snow  Heavy precipitations  Wind > 20 kt
SIGMETs :     Misc.  Thunderstorms  Icing  Turbulence  Mountain Waves  Volcanic Ashes







- Airport Elevation : -15 ft
- IATA code : RTM


EHRD - Rotterdam Zestienhoven

CURRENT METAR :
  • 270525Z AUTO 03007KT 350V060 9999 SCT017 15/11 Q1029 NOSIG

EXPIRED METARs :
  • 270455Z AUTO 02007KT 340V070 9999 NCD 15/11 Q1029 NOSIG
  • 270425Z AUTO 03008KT 350V070 9999 BKN015 14/11 Q1028 BECMG SCT015
  • 270355Z AUTO 03008KT 350V070 9999 OVC016 14/11 Q1028 NOSIG
  • 270325Z AUTO 03009KT 350V070 9999 OVC016 15/11 Q1029 NOSIG
  • 270255Z AUTO 02008KT 330V060 9999 OVC016 15/12 Q1029 NOSIG

TAF TAF EHRD
Valid from the 27 at 06:00 until the 28 at 12:00 UTC


270510Z 2706/2812 02010KT 9999 SCT020
PROB30
TEMPO 2706/2709 BKN014
PROB30 2800/2808 BKN014
BECMG 2802/2805 05008KT
No reported NOTAMs for that airfield.



MET'MAP, your aeronautical weather chart ! - Copyright ORBIFLY December 2007 - Disclaimer

ORBIFLY MET'MAP TEAM :

Programming & Development : Alexandra Zaïnal
Concept & Development : Baudouin d'Aumeries
Co-Development & Prog : Marc-Olivier Méhu
Technical & hardware support : Manuel Goepfert

Contact : metmap@orbifly.com




SOURCES & CREDITS :

   NOAA